Time;durP1;ratioP1;P1;durP2;ratioP2;P2;SDS_P1;SDS_P2;PMS_P1;PMS_P2;Temp;Humidity;BMP_temperature;BMP_pressure;BME280_temperature;BME280_humidity;BME280_pressure;Samples;Min_cycle;Max_cycle;Signal;HPM_P1;HPM_P2
2022/02/20 00:00:44;;;;;;;2.90;1.70;;;6.50;63.40;;;;;;4964624;28;20438;-71
2022/02/20 00:03:09;;;;;;;6.10;2.00;;;6.50;63.70;;;;;;4969609;28;20191;-72
2022/02/20 00:05:36;;;;;;;7.97;1.70;;;6.40;63.90;;;;;;4971670;28;20231;-71
2022/02/20 00:08:03;;;;;;;4.73;1.53;;;6.40;64.70;;;;;;4972323;28;20195;-71
2022/02/20 00:10:29;;;;;;;3.73;1.70;;;6.30;65.70;;;;;;4970411;28;20430;-72
2022/02/20 00:12:54;;;;;;;7.73;1.60;;;6.20;66.90;;;;;;4969566;28;20433;-70
2022/02/20 00:15:20;;;;;;;3.60;1.40;;;6.10;67.70;;;;;;4967217;28;20179;-70
2022/02/20 00:17:50;;;;;;;9.10;1.70;;;6.10;68.50;;;;;;4963609;28;20195;-70
2022/02/20 00:20:16;;;;;;;4.43;1.67;;;6.00;69.20;;;;;;4965913;28;20462;-69
2022/02/20 00:22:42;;;;;;;6.00;1.70;;;6.00;69.50;;;;;;4957806;28;20470;-70
2022/02/20 00:25:08;;;;;;;5.53;1.73;;;6.00;69.80;;;;;;4963261;28;21138;-69
2022/02/20 00:27:34;;;;;;;5.60;1.67;;;6.00;70.10;;;;;;4966671;28;20188;-70
2022/02/20 00:30:00;;;;;;;2.80;1.57;;;5.90;70.40;;;;;;4969917;28;20804;-71
2022/02/20 00:32:26;;;;;;;2.13;1.20;;;5.90;70.70;;;;;;4968465;28;20357;-71
2022/02/20 00:34:51;;;;;;;9.00;2.03;;;5.90;70.70;;;;;;4968939;28;20191;-71
2022/02/20 00:37:18;;;;;;;3.83;1.60;;;5.90;70.80;;;;;;4965776;28;20207;-71
2022/02/20 00:39:44;;;;;;;3.50;1.80;;;5.90;70.80;;;;;;4968114;28;20207;-71
2022/02/20 00:42:10;;;;;;;6.80;2.70;;;5.80;71.40;;;;;;4961548;28;20494;-69
2022/02/20 00:44:35;;;;;;;4.70;1.80;;;5.80;72.10;;;;;;4966249;28;20190;-68
2022/02/20 00:47:01;;;;;;;4.77;2.00;;;5.70;72.90;;;;;;4967143;28;20212;-70
2022/02/20 00:49:27;;;;;;;5.10;1.50;;;5.60;73.70;;;;;;4964043;28;20267;-70
2022/02/20 00:51:53;;;;;;;9.00;2.60;;;5.50;74.20;;;;;;4965161;28;20424;-70
2022/02/20 00:54:18;;;;;;;4.67;2.10;;;5.50;74.60;;;;;;4968692;28;20195;-70
2022/02/20 00:56:44;;;;;;;11.83;2.67;;;5.50;74.90;;;;;;4967760;28;20220;-69
2022/02/20 00:59:10;;;;;;;2.03;1.30;;;5.40;75.40;;;;;;4966072;28;20306;-68
2022/02/20 01:01:35;;;;;;;3.13;1.53;;;5.40;75.70;;;;;;4964613;28;20268;-69
2022/02/20 01:04:01;;;;;;;7.87;1.73;;;5.40;75.90;;;;;;4966656;28;20626;-69
2022/02/20 01:06:27;;;;;;;4.93;1.90;;;5.40;76.10;;;;;;4968260;28;20215;-70
2022/02/20 01:08:53;;;;;;;5.70;1.80;;;5.40;76.10;;;;;;4966540;28;20233;-68
2022/02/20 01:11:20;;;;;;;7.90;2.30;;;5.40;76.10;;;;;;4968663;28;20422;-70
2022/02/20 01:13:47;;;;;;;7.03;1.80;;;5.40;76.20;;;;;;4965184;28;20547;-70
2022/02/20 01:16:14;;;;;;;4.10;1.80;;;5.40;76.40;;;;;;4971373;28;20890;-70
2022/02/20 01:18:40;;;;;;;5.80;1.70;;;5.40;76.40;;;;;;4971961;28;20473;-69
2022/02/20 01:21:06;;;;;;;7.67;2.27;;;5.40;76.40;;;;;;4973443;28;20849;-69
2022/02/20 01:23:32;;;;;;;8.27;1.87;;;5.50;76.40;;;;;;4974850;28;20435;-68
2022/02/20 01:25:58;;;;;;;7.53;1.83;;;5.40;76.50;;;;;;4962576;28;20266;-69
2022/02/20 01:28:24;;;;;;;6.50;1.60;;;5.50;76.50;;;;;;4972187;28;20211;-69
2022/02/20 01:30:50;;;;;;;7.07;1.60;;;5.40;76.70;;;;;;4967132;28;20191;-70
2022/02/20 01:33:17;;;;;;;4.60;1.67;;;5.50;77.00;;;;;;4965322;28;20419;-69
2022/02/20 01:35:43;;;;;;;4.33;1.30;;;5.50;76.80;;;;;;4971303;28;20261;-68
2022/02/20 01:38:09;;;;;;;5.03;2.00;;;5.50;76.50;;;;;;4971646;28;20437;-69
2022/02/20 01:40:35;;;;;;;4.60;1.57;;;5.50;76.70;;;;;;4964112;28;20468;-70
2022/02/20 01:43:01;;;;;;;5.40;1.47;;;5.50;76.50;;;;;;4966148;28;20214;-70
2022/02/20 01:45:27;;;;;;;4.83;1.77;;;5.50;76.50;;;;;;4976726;28;20450;-69
2022/02/20 01:47:53;;;;;;;1.50;1.20;;;5.50;76.80;;;;;;4973097;28;20426;-69
2022/02/20 01:50:20;;;;;;;10.17;2.00;;;5.50;76.50;;;;;;4962022;28;21016;-69
2022/02/20 01:52:46;;;;;;;6.53;1.57;;;5.60;76.50;;;;;;4971304;28;20669;-70
2022/02/20 01:55:13;;;;;;;8.13;2.00;;;5.60;76.40;;;;;;4970124;28;20426;-69
2022/02/20 01:57:41;;;;;;;3.43;1.57;;;5.50;76.40;;;;;;4956657;28;20442;-70
2022/02/20 02:00:13;;;;;;;2.97;1.37;;;5.60;76.40;;;;;;4965304;28;20555;-68
2022/02/20 02:02:39;;;;;;;3.57;1.80;;;5.60;76.40;;;;;;4970137;28;21088;-68
2022/02/20 02:05:05;;;;;;;6.90;2.20;;;5.60;76.50;;;;;;4965327;28;20419;-68
2022/02/20 02:07:32;;;;;;;3.90;1.57;;;5.60;76.40;;;;;;4968401;28;20494;-69
2022/02/20 02:09:58;;;;;;;5.57;2.10;;;5.60;76.50;;;;;;4961587;28;20487;-69
2022/02/20 02:12:24;;;;;;;5.00;1.37;;;5.60;76.50;;;;;;4969952;28;20434;-69
2022/02/20 02:15:00;;;;;;;12.53;1.60;;;5.70;76.40;;;;;;4964339;28;20525;-70
2022/02/20 02:17:26;;;;;;;5.27;1.80;;;5.70;76.40;;;;;;4970110;28;20442;-70
2022/02/20 02:19:52;;;;;;;4.83;1.37;;;5.70;76.70;;;;;;4970961;28;20470;-70
2022/02/20 02:22:19;;;;;;;6.20;1.43;;;5.70;76.70;;;;;;4978229;28;20419;-70
2022/02/20 02:24:45;;;;;;;3.40;1.50;;;5.70;76.70;;;;;;4962342;28;20498;-69
2022/02/20 02:27:15;;;;;;;2.37;1.10;;;5.70;76.70;;;;;;4968892;28;21036;-69
2022/02/20 02:29:42;;;;;;;5.47;1.70;;;5.70;76.80;;;;;;4960044;28;20419;-70
2022/02/20 02:32:08;;;;;;;5.20;1.80;;;5.70;76.80;;;;;;4965904;28;20422;-70
2022/02/20 02:34:34;;;;;;;7.73;1.50;;;5.70;76.70;;;;;;4963814;28;20453;-70
2022/02/20 02:37:00;;;;;;;8.93;1.63;;;5.80;76.70;;;;;;4963794;28;20442;-70
2022/02/20 02:39:26;;;;;;;7.67;1.63;;;5.80;76.70;;;;;;4967390;28;20463;-70
2022/02/20 02:41:51;;;;;;;7.30;1.70;;;5.80;76.50;;;;;;4962689;28;20918;-69
2022/02/20 02:44:17;;;;;;;7.10;2.10;;;5.90;76.50;;;;;;4965124;28;20553;-71
2022/02/20 02:46:43;;;;;;;4.53;1.70;;;5.90;76.20;;;;;;4968629;28;20770;-70
2022/02/20 02:49:09;;;;;;;8.73;1.80;;;5.90;76.40;;;;;;4960993;28;20427;-69
2022/02/20 02:51:36;;;;;;;4.43;1.53;;;6.00;76.10;;;;;;4966696;28;20198;-69
2022/02/20 02:54:07;;;;;;;8.70;1.60;;;6.00;76.10;;;;;;4965938;28;20457;-70
2022/02/20 02:56:33;;;;;;;4.03;1.20;;;6.00;75.90;;;;;;4963311;28;21013;-70
2022/02/20 02:58:59;;;;;;;2.40;1.17;;;6.00;76.20;;;;;;4962602;28;20458;-69
2022/02/20 03:01:25;;;;;;;8.20;1.43;;;6.00;76.70;;;;;;4962704;28;21063;-70
2022/02/20 03:03:51;;;;;;;2.87;1.33;;;6.00;76.80;;;;;;4966347;28;20245;-70
2022/02/20 03:06:17;;;;;;;6.17;1.87;;;6.00;76.80;;;;;;4970359;28;20789;-70
2022/02/20 03:08:43;;;;;;;3.47;1.20;;;6.00;76.80;;;;;;4967180;28;20274;-70
2022/02/20 03:11:09;;;;;;;2.93;1.67;;;6.00;76.80;;;;;;4969570;28;20427;-70
2022/02/20 03:13:36;;;;;;;3.67;1.50;;;6.10;76.70;;;;;;4974582;28;21055;-70
2022/02/20 03:16:02;;;;;;;2.40;1.30;;;6.10;76.70;;;;;;4971688;28;20195;-70
2022/02/20 03:18:30;;;;;;;4.53;1.60;;;6.10;76.50;;;;;;4972166;28;20418;-69
2022/02/20 03:21:00;;;;;;;1.53;1.10;;;6.10;76.80;;;;;;4966053;28;20427;-68
2022/02/20 03:23:27;;;;;;;6.70;1.20;;;6.10;77.00;;;;;;4979810;28;20427;-68
2022/02/20 03:25:52;;;;;;;3.83;1.43;;;6.10;77.00;;;;;;4967219;28;20453;-69
2022/02/20 03:28:19;;;;;;;4.80;1.33;;;6.10;77.10;;;;;;4970906;28;20483;-69
2022/02/20 03:30:45;;;;;;;3.50;1.40;;;6.10;77.30;;;;;;4966837;28;20258;-70
2022/02/20 03:33:11;;;;;;;1.93;1.10;;;6.10;77.30;;;;;;4967338;28;20419;-69
2022/02/20 03:35:37;;;;;;;7.73;1.70;;;6.10;77.80;;;;;;4972921;28;20215;-70
2022/02/20 03:38:03;;;;;;;3.33;1.90;;;6.10;78.10;;;;;;4974014;28;20761;-69
2022/02/20 03:40:29;;;;;;;3.23;1.20;;;6.10;78.10;;;;;;4970684;28;21069;-70
2022/02/20 03:42:55;;;;;;;9.50;1.53;;;6.10;78.30;;;;;;4974743;28;20517;-71
2022/02/20 03:45:22;;;;;;;2.60;1.30;;;6.10;78.30;;;;;;4967796;28;20736;-70
2022/02/20 03:47:48;;;;;;;2.60;1.50;;;6.10;78.30;;;;;;4970543;28;20214;-68
2022/02/20 03:50:14;;;;;;;2.97;1.17;;;6.10;78.30;;;;;;4966290;28;20442;-69
2022/02/20 03:52:40;;;;;;;5.27;1.30;;;6.20;78.10;;;;;;4970411;28;20428;-67
2022/02/20 03:55:08;;;;;;;7.17;1.67;;;6.20;78.00;;;;;;4973448;28;20470;-69
2022/02/20 03:57:36;;;;;;;6.97;1.20;;;6.20;78.10;;;;;;4971822;28;20528;-71
2022/02/20 04:00:10;;;;;;;3.77;1.23;;;6.20;79.20;;;;;;4974421;28;20478;-69
2022/02/20 04:02:40;;;;;;;4.43;1.27;;;6.10;80.00;;;;;;4991240;28;20422;-68
2022/02/20 04:05:16;;;;;;;2.90;1.30;;;6.10;80.80;;;;;;4976900;28;20434;-70
2022/02/20 04:07:42;;;;;;;1.17;0.80;;;6.00;81.20;;;;;;4970923;28;20433;-69
2022/02/20 04:10:10;;;;;;;4.20;1.30;;;6.00;81.90;;;;;;4966802;28;20423;-69
2022/02/20 04:12:36;;;;;;;4.10;1.30;;;5.90;83.00;;;;;;4972140;28;20422;-69
2022/02/20 04:15:06;;;;;;;4.33;1.20;;;5.90;83.70;;;;;;4965686;28;20750;-68
2022/02/20 04:17:41;;;;;;;3.83;1.17;;;5.90;83.80;;;;;;4972281;28;20438;-69
2022/02/20 04:20:09;;;;;;;5.60;1.30;;;5.90;83.80;;;;;;4965879;28;20466;-70
2022/02/20 04:22:35;;;;;;;2.60;1.07;;;5.90;84.00;;;;;;4973825;28;20419;-68
2022/02/20 04:25:02;;;;;;;5.57;1.20;;;6.00;83.80;;;;;;4966695;28;20463;-69
2022/02/20 04:27:28;;;;;;;4.03;1.10;;;6.00;83.80;;;;;;4970406;28;20450;-70
2022/02/20 04:29:53;;;;;;;2.77;1.43;;;6.00;83.80;;;;;;4964319;28;20481;-68
2022/02/20 04:32:19;;;;;;;7.43;1.00;;;6.00;84.30;;;;;;4971331;28;20191;-69
2022/02/20 04:34:45;;;;;;;3.37;0.87;;;5.90;84.60;;;;;;4968236;28;20195;-68
2022/02/20 04:37:10;;;;;;;4.03;0.90;;;5.90;84.70;;;;;;4970654;28;20214;-68
2022/02/20 04:39:36;;;;;;;1.60;0.90;;;5.90;85.00;;;;;;4964470;28;20207;-70
2022/02/20 04:42:02;;;;;;;1.30;0.80;;;5.90;84.90;;;;;;4966525;28;20197;-67
2022/02/20 04:44:28;;;;;;;4.33;0.83;;;5.90;85.20;;;;;;4966102;28;20188;-69
2022/02/20 04:46:53;;;;;;;5.43;1.27;;;5.90;85.30;;;;;;4969791;28;20976;-68
2022/02/20 04:49:19;;;;;;;1.27;0.90;;;5.90;85.50;;;;;;4964898;28;20298;-69
2022/02/20 04:51:45;;;;;;;1.43;0.80;;;5.90;85.60;;;;;;4968513;28;20249;-69
2022/02/20 04:54:11;;;;;;;3.57;2.27;;;5.80;85.90;;;;;;4969324;28;20732;-68
2022/02/20 04:56:36;;;;;;;1.57;0.83;;;5.80;86.00;;;;;;4967979;28;20687;-69
2022/02/20 04:59:02;;;;;;;2.00;1.07;;;5.80;86.50;;;;;;4972445;28;20211;-69
2022/02/20 05:01:28;;;;;;;5.43;1.30;;;5.80;87.10;;;;;;4970366;28;20195;-69
2022/02/20 05:03:54;;;;;;;1.30;0.80;;;5.70;87.10;;;;;;4968519;28;20442;-70
2022/02/20 05:06:27;;;;;;;3.00;0.90;;;5.70;87.30;;;;;;4971741;28;20214;-68
2022/02/20 05:08:57;;;;;;;2.30;1.10;;;5.70;87.60;;;;;;4982540;28;20306;-68
2022/02/20 05:11:24;;;;;;;1.27;0.87;;;5.70;88.90;;;;;;4972570;28;20473;-70
2022/02/20 05:13:51;;;;;;;3.57;1.03;;;5.60;89.20;;;;;;4963998;28;20497;-70
2022/02/20 05:16:18;;;;;;;7.00;1.00;;;5.50;89.30;;;;;;4966013;28;20494;-70
2022/02/20 05:18:43;;;;;;;3.27;0.80;;;5.60;89.60;;;;;;4969693;28;20791;-70
2022/02/20 05:21:09;;;;;;;2.30;0.93;;;5.50;89.50;;;;;;4963981;28;20423;-69
2022/02/20 05:23:35;;;;;;;3.23;0.93;;;5.50;89.70;;;;;;4966000;28;20191;-71
2022/02/20 05:26:02;;;;;;;1.43;0.80;;;5.50;89.30;;;;;;4963015;28;20203;-69
2022/02/20 05:28:28;;;;;;;1.57;0.87;;;5.60;89.20;;;;;;4966673;28;20230;-67
2022/02/20 05:30:54;;;;;;;2.57;0.90;;;5.60;89.00;;;;;;4961102;28;20498;-69
2022/02/20 05:33:19;;;;;;;3.53;1.73;;;5.60;89.20;;;;;;4965660;28;20481;-69
2022/02/20 05:35:45;;;;;;;2.63;1.20;;;5.60;89.50;;;;;;4966671;28;20502;-69
2022/02/20 05:38:11;;;;;;;1.10;1.00;;;5.60;90.50;;;;;;4964287;28;20191;-70
2022/02/20 05:40:38;;;;;;;8.00;1.97;;;5.50;91.00;;;;;;4970440;28;20478;-70
2022/02/20 05:43:05;;;;;;;1.20;0.80;;;5.40;91.10;;;;;;4972668;28;20466;-69
2022/02/20 05:45:31;;;;;;;1.03;1.00;;;5.40;91.30;;;;;;4970009;28;20942;-69
2022/02/20 05:47:57;;;;;;;3.47;1.40;;;5.40;91.30;;;;;;4967750;28;20790;-70
2022/02/20 05:50:23;;;;;;;2.70;1.13;;;5.40;91.20;;;;;;4961161;28;20442;-68
2022/02/20 05:52:49;;;;;;;2.43;1.20;;;5.40;91.40;;;;;;4970682;28;20657;-71
2022/02/20 05:55:15;;;;;;;1.00;0.80;;;5.40;91.60;;;;;;4966370;28;20628;-70
2022/02/20 05:57:52;;;;;;;1.80;1.00;;;5.40;91.60;;;;;;4972377;28;20199;-69
2022/02/20 06:00:26;;;;;;;2.80;1.10;;;5.40;91.70;;;;;;4962437;28;20478;-70
2022/02/20 06:02:52;;;;;;;5.00;1.50;;;5.40;91.90;;;;;;4969390;28;20429;-69
2022/02/20 06:05:18;;;;;;;4.57;1.10;;;5.40;92.00;;;;;;4970365;28;20423;-70
2022/02/20 06:07:43;;;;;;;5.27;1.20;;;5.40;92.00;;;;;;4970885;28;20187;-69
2022/02/20 06:10:10;;;;;;;1.53;1.47;;;5.40;91.90;;;;;;4971089;28;20430;-69
2022/02/20 06:12:37;;;;;;;3.13;1.30;;;5.50;91.60;;;;;;4968276;28;20660;-69
2022/02/20 06:15:04;;;;;;;2.70;1.20;;;5.50;91.10;;;;;;4970502;28;20426;-69
2022/02/20 06:17:30;;;;;;;4.13;1.40;;;5.60;90.40;;;;;;4970980;28;20454;-69
2022/02/20 06:19:55;;;;;;;1.10;0.77;;;5.70;90.10;;;;;;4967263;28;20473;-71
2022/02/20 06:22:21;;;;;;;3.10;0.90;;;5.70;89.50;;;;;;4970741;28;20185;-70
2022/02/20 06:24:47;;;;;;;2.40;1.00;;;5.80;89.60;;;;;;4965043;28;20255;-70
2022/02/20 06:27:13;;;;;;;1.60;0.80;;;5.80;89.70;;;;;;4970270;28;20202;-69
2022/02/20 06:29:38;;;;;;;2.17;1.07;;;5.80;89.60;;;;;;4960604;28;20932;-70
2022/02/20 06:32:05;;;;;;;1.10;0.73;;;5.80;89.70;;;;;;4969547;28;20194;-71
2022/02/20 06:34:31;;;;;;;1.30;0.90;;;5.80;89.50;;;;;;4964317;28;20536;-68
2022/02/20 06:36:57;;;;;;;2.57;0.93;;;5.80;89.20;;;;;;4966245;28;20447;-70
2022/02/20 06:39:22;;;;;;;1.47;1.13;;;5.80;88.70;;;;;;4960174;28;20257;-71
2022/02/20 06:41:48;;;;;;;1.97;0.80;;;5.90;88.60;;;;;;4968781;28;20434;-70
2022/02/20 06:44:14;;;;;;;1.97;0.87;;;5.90;88.00;;;;;;4975768;28;20275;-69
2022/02/20 06:46:41;;;;;;;0.90;0.60;;;6.00;87.80;;;;;;4981275;28;20217;-70
2022/02/20 06:49:08;;;;;;;1.00;0.80;;;6.00;87.00;;;;;;4972040;28;20196;-69
2022/02/20 06:51:36;;;;;;;2.50;0.80;;;6.10;86.60;;;;;;4978114;28;20505;-70
2022/02/20 06:54:03;;;;;;;3.30;0.90;;;6.10;86.30;;;;;;4975394;28;20430;-70
2022/02/20 06:56:30;;;;;;;1.00;0.70;;;6.10;86.30;;;;;;4977372;28;20466;-69
2022/02/20 06:58:56;;;;;;;3.80;0.80;;;6.10;86.00;;;;;;4970033;28;20827;-70
2022/02/20 07:01:21;;;;;;;1.80;0.80;;;6.20;85.90;;;;;;4967491;28;20434;-69
2022/02/20 07:03:47;;;;;;;1.43;0.93;;;6.20;85.30;;;;;;4974381;28;20191;-69
2022/02/20 07:06:13;;;;;;;1.43;0.90;;;6.20;85.30;;;;;;4965413;28;20215;-69
2022/02/20 07:08:39;;;;;;;1.10;0.70;;;6.30;85.20;;;;;;4968518;28;21078;-70
2022/02/20 07:11:04;;;;;;;1.37;0.70;;;6.30;84.70;;;;;;4973311;28;20195;-69
2022/02/20 07:13:30;;;;;;;1.23;0.80;;;6.30;84.70;;;;;;4975614;28;20429;-69
2022/02/20 07:15:56;;;;;;;1.87;0.80;;;6.30;84.70;;;;;;4974677;28;20966;-70
2022/02/20 07:18:22;;;;;;;1.00;0.70;;;6.40;84.90;;;;;;4974590;28;20654;-69
2022/02/20 07:20:48;;;;;;;1.13;0.70;;;6.40;84.70;;;;;;4973235;28;20657;-71
2022/02/20 07:23:15;;;;;;;3.07;0.80;;;6.40;84.40;;;;;;4965971;28;20939;-69
2022/02/20 07:25:41;;;;;;;1.00;0.60;;;6.40;84.40;;;;;;4971679;28;20891;-69
2022/02/20 07:28:08;;;;;;;3.53;0.70;;;6.40;84.40;;;;;;4974081;28;20525;-69
2022/02/20 07:30:34;;;;;;;3.00;0.80;;;6.40;84.40;;;;;;4972794;28;20493;-70
2022/02/20 07:33:04;;;;;;;4.40;0.80;;;6.40;84.60;;;;;;4967903;28;20436;-70
2022/02/20 07:35:31;;;;;;;1.30;1.10;;;6.50;84.60;;;;;;4976073;28;20646;-69
2022/02/20 07:37:57;;;;;;;3.93;1.00;;;6.50;84.40;;;;;;4973027;28;20474;-69
2022/02/20 07:40:23;;;;;;;2.00;0.80;;;6.50;84.30;;;;;;4975206;28;20469;-71
2022/02/20 07:42:49;;;;;;;1.90;1.00;;;6.50;84.40;;;;;;4978147;28;20427;-70
2022/02/20 07:45:15;;;;;;;1.80;0.70;;;6.60;84.40;;;;;;4976084;28;20643;-70
2022/02/20 07:47:59;;;;;;;2.93;0.90;;;6.60;84.30;;;;;;4985811;28;20431;-69
2022/02/20 07:50:32;;;;;;;1.03;0.73;;;6.60;83.80;;;;;;4980815;28;20449;-71
2022/02/20 07:52:58;;;;;;;5.63;1.10;;;6.60;84.00;;;;;;4987603;28;20478;-70
2022/02/20 07:55:25;;;;;;;2.30;0.90;;;6.70;84.00;;;;;;4987038;28;20435;-70
2022/02/20 07:57:51;;;;;;;1.33;1.03;;;6.70;83.70;;;;;;4981232;28;20458;-70
2022/02/20 08:00:19;;;;;;;2.00;1.03;;;6.70;83.60;;;;;;4995534;28;20468;-69
2022/02/20 08:02:46;;;;;;;2.40;0.83;;;6.70;83.60;;;;;;4985764;28;20430;-70
2022/02/20 08:05:12;;;;;;;4.50;1.23;;;6.80;83.40;;;;;;4970518;28;20426;-72
2022/02/20 08:07:38;;;;;;;0.87;0.80;;;6.90;82.80;;;;;;4972111;28;20848;-70
2022/02/20 08:10:05;;;;;;;2.00;0.90;;;6.90;82.50;;;;;;4971431;28;20445;-70
2022/02/20 08:12:31;;;;;;;1.30;1.03;;;6.90;82.50;;;;;;4975492;28;20611;-70
2022/02/20 08:14:57;;;;;;;1.97;0.97;;;7.00;82.50;;;;;;4973252;28;20966;-70
2022/02/20 08:17:23;;;;;;;1.23;0.90;;;7.10;81.90;;;;;;4971919;28;20486;-70
2022/02/20 08:19:49;;;;;;;1.40;0.90;;;7.10;81.80;;;;;;4965335;28;20211;-70
2022/02/20 08:22:15;;;;;;;1.20;0.90;;;7.10;81.80;;;;;;4964330;28;20835;-70
2022/02/20 08:24:45;;;;;;;1.40;0.97;;;7.20;81.40;;;;;;4963670;28;20184;-69
2022/02/20 08:27:12;;;;;;;2.57;1.00;;;7.20;81.10;;;;;;4971649;28;20549;-69
2022/02/20 08:29:38;;;;;;;2.37;0.80;;;7.20;81.10;;;;;;4967503;28;20512;-68
2022/02/20 08:32:05;;;;;;;1.00;0.83;;;7.20;80.80;;;;;;4969755;28;20956;-71
2022/02/20 08:34:30;;;;;;;4.93;1.10;;;7.30;80.80;;;;;;4970074;28;20183;-71
2022/02/20 08:36:56;;;;;;;1.30;0.90;;;7.30;80.50;;;;;;4977478;28;20517;-68
2022/02/20 08:39:22;;;;;;;1.93;1.50;;;7.40;80.30;;;;;;4974761;28;20297;-70
2022/02/20 08:41:48;;;;;;;1.73;1.03;;;7.30;80.20;;;;;;4978609;28;20191;-71
2022/02/20 08:44:13;;;;;;;4.37;1.20;;;7.40;80.00;;;;;;4968099;28;20281;-69
2022/02/20 08:46:39;;;;;;;1.57;1.20;;;7.40;80.20;;;;;;4971610;28;20417;-69
2022/02/20 08:49:05;;;;;;;4.40;1.60;;;7.50;80.00;;;;;;4972670;28;20183;-69
2022/02/20 08:51:31;;;;;;;1.10;0.87;;;7.50;79.60;;;;;;4970717;28;20503;-69
2022/02/20 08:53:57;;;;;;;1.10;0.90;;;7.60;79.60;;;;;;4961550;28;20200;-68
2022/02/20 08:56:26;;;;;;;1.67;0.73;;;7.60;79.00;;;;;;4970230;28;20561;-69
2022/02/20 08:58:53;;;;;;;2.03;1.10;;;7.70;79.00;;;;;;4966643;28;20274;-68
2022/02/20 09:01:19;;;;;;;1.90;0.83;;;7.70;78.60;;;;;;4966826;28;20794;-71
2022/02/20 09:03:45;;;;;;;1.20;0.90;;;7.90;78.00;;;;;;4967182;28;20509;-70
2022/02/20 09:06:10;;;;;;;4.83;1.07;;;7.90;77.30;;;;;;4963207;28;21095;-69
2022/02/20 09:08:36;;;;;;;1.90;0.77;;;8.00;77.00;;;;;;4971024;28;20197;-71
2022/02/20 09:11:03;;;;;;;2.30;0.90;;;8.00;76.80;;;;;;4968376;28;20792;-70
2022/02/20 09:13:29;;;;;;;4.10;0.83;;;8.10;77.00;;;;;;4969371;28;21208;-71
2022/02/20 09:15:55;;;;;;;3.33;1.40;;;8.20;76.10;;;;;;4969165;28;20529;-69
2022/02/20 09:18:21;;;;;;;1.77;1.00;;;8.30;75.70;;;;;;4959059;28;20188;-69
2022/02/20 09:20:47;;;;;;;1.80;0.83;;;8.30;75.40;;;;;;4963360;28;20541;-71
2022/02/20 09:23:13;;;;;;;1.20;0.80;;;8.30;75.20;;;;;;4962659;28;20426;-71
2022/02/20 09:25:40;;;;;;;1.00;0.70;;;8.40;75.40;;;;;;4964085;28;20206;-71
2022/02/20 09:28:05;;;;;;;1.60;0.87;;;8.40;74.90;;;;;;4969804;28;20435;-71
2022/02/20 09:30:32;;;;;;;2.27;1.10;;;8.40;74.90;;;;;;4962442;28;20492;-71
2022/02/20 09:32:58;;;;;;;3.17;1.20;;;8.40;74.90;;;;;;4963535;28;20443;-71
2022/02/20 09:35:25;;;;;;;0.97;0.70;;;8.40;75.10;;;;;;4967278;28;20816;-71
2022/02/20 09:37:51;;;;;;;1.23;0.73;;;8.40;75.10;;;;;;4958386;28;21150;-71
2022/02/20 09:40:17;;;;;;;3.03;0.87;;;8.40;75.10;;;;;;4976650;28;20477;-70
2022/02/20 09:42:43;;;;;;;2.07;0.93;;;8.40;75.40;;;;;;4963308;28;20489;-72
2022/02/20 09:45:10;;;;;;;2.30;0.83;;;8.40;75.20;;;;;;4963561;28;20191;-71
2022/02/20 09:47:40;;;;;;;1.40;0.87;;;8.60;74.80;;;;;;4965748;28;20426;-71
2022/02/20 09:50:07;;;;;;;3.17;1.10;;;8.60;74.30;;;;;;4966596;28;20977;-71
2022/02/20 09:52:33;;;;;;;2.27;1.00;;;8.60;74.30;;;;;;4964355;28;20975;-72
2022/02/20 09:54:59;;;;;;;1.67;0.90;;;8.60;74.50;;;;;;4958320;28;21227;-71
2022/02/20 09:57:25;;;;;;;1.70;1.07;;;8.60;74.30;;;;;;4960520;28;20482;-71
2022/02/20 09:59:51;;;;;;;2.10;1.40;;;8.80;74.50;;;;;;4964151;28;20475;-71
2022/02/20 10:02:19;;;;;;;1.57;0.97;;;8.90;73.90;;;;;;4966072;28;20419;-71
2022/02/20 10:04:49;;;;;;;3.73;1.10;;;9.00;73.50;;;;;;4968794;28;20445;-71
2022/02/20 10:07:40;;;;;;;1.93;1.03;;;9.10;73.00;;;;;;4970086;28;20867;-70
2022/02/20 10:10:15;;;;;;;3.53;0.90;;;9.20;72.40;;;;;;4964932;28;20426;-71
2022/02/20 10:12:41;;;;;;;1.60;1.00;;;9.20;72.00;;;;;;4967463;28;20433;-72
2022/02/20 10:15:28;;;;;;;1.17;0.70;;;9.10;72.30;;;;;;4968042;28;20430;-72
2022/02/20 10:17:58;;;;;;;2.50;0.80;;;9.10;72.60;;;;;;4963032;28;21240;-71
2022/02/20 10:20:24;;;;;;;0.80;0.60;;;9.20;72.40;;;;;;4961023;28;20544;-71
2022/02/20 10:22:50;;;;;;;1.13;0.93;;;9.20;72.10;;;;;;4961804;28;20439;-70
2022/02/20 10:25:16;;;;;;;3.73;0.90;;;9.30;72.40;;;;;;4964657;28;20426;-72
2022/02/20 10:27:54;;;;;;;2.90;0.90;;;9.30;72.10;;;;;;4964810;28;20502;-71
2022/02/20 10:30:24;;;;;;;1.40;0.80;;;9.40;71.80;;;;;;4962906;28;20193;-72
2022/02/20 10:33:19;;;;;;;1.20;0.77;;;9.40;71.40;;;;;;4963501;28;20439;-70
2022/02/20 10:35:53;;;;;;;1.20;0.70;;;9.50;72.00;;;;;;4965846;28;20459;-70
2022/02/20 10:38:23;;;;;;;1.17;0.80;;;9.40;71.60;;;;;;4959781;28;20437;-71
2022/02/20 10:40:51;;;;;;;2.20;0.90;;;9.50;72.10;;;;;;4961642;28;20471;-71
2022/02/20 10:43:32;;;;;;;1.50;0.93;;;9.60;72.40;;;;;;4960176;28;20848;-71
2022/02/20 10:46:06;;;;;;;1.70;1.20;;;9.60;71.70;;;;;;4955363;28;20466;-72
2022/02/20 10:48:41;;;;;;;0.97;0.77;;;9.70;71.70;;;;;;4961829;28;20418;-72
2022/02/20 10:51:07;;;;;;;1.27;0.80;;;9.70;71.60;;;;;;4961963;28;20537;-71
2022/02/20 10:53:34;;;;;;;2.20;1.10;;;9.60;71.80;;;;;;4958498;28;20518;-70
2022/02/20 10:56:00;;;;;;;1.67;0.90;;;9.70;71.70;;;;;;4963203;28;20217;-71
2022/02/20 10:58:29;;;;;;;1.43;0.60;;;9.80;71.10;;;;;;4958780;28;20471;-72
2022/02/20 11:11:49;;;;;;;2.00;0.77;;;9.70;71.10;;;;;;5968703;22;20394;-74
2022/02/20 11:14:23;;;;;;;1.73;0.80;;;9.80;71.00;;;;;;4984943;28;20508;-76
2022/02/20 11:16:53;;;;;;;0.80;0.60;;;9.90;70.50;;;;;;4987506;28;20442;-74
2022/02/20 11:19:22;;;;;;;1.37;0.87;;;10.00;70.10;;;;;;4988426;28;20562;-76
2022/02/20 11:21:52;;;;;;;0.80;0.60;;;10.00;69.90;;;;;;4989636;28;21013;-74
2022/02/20 11:24:19;;;;;;;1.23;0.90;;;10.20;69.70;;;;;;4982069;28;20773;-75
2022/02/20 11:26:46;;;;;;;1.60;0.90;;;10.10;69.50;;;;;;4996979;28;20485;-73
2022/02/20 11:29:13;;;;;;;1.47;0.70;;;10.00;69.80;;;;;;5014058;28;20418;-76
2022/02/20 11:31:41;;;;;;;0.80;0.57;;;9.90;69.90;;;;;;5008037;28;20453;-75
2022/02/20 11:34:09;;;;;;;1.77;0.90;;;9.90;70.10;;;;;;5006033;28;20444;-76
2022/02/20 11:36:35;;;;;;;0.90;0.80;;;9.90;70.40;;;;;;4995942;28;20945;-76
2022/02/20 11:39:07;;;;;;;1.13;0.70;;;9.90;70.40;;;;;;4993659;28;20430;-74
2022/02/20 11:41:33;;;;;;;1.37;0.70;;;10.00;70.40;;;;;;4995485;28;20228;-77
2022/02/20 11:44:18;;;;;;;1.20;0.70;;;10.00;69.90;;;;;;4993690;28;20426;-74
2022/02/20 11:46:54;;;;;;;0.97;0.77;;;10.00;70.40;;;;;;4991592;28;20905;-75
2022/02/20 11:49:29;;;;;;;2.93;0.70;;;10.00;70.50;;;;;;5002928;28;20464;-76
2022/02/20 11:52:10;;;;;;;1.40;0.60;;;10.00;70.40;;;;;;4994909;28;21024;-74
2022/02/20 11:54:38;;;;;;;2.00;0.83;;;10.00;70.70;;;;;;4993535;28;20439;-75
2022/02/20 11:57:15;;;;;;;1.10;0.70;;;10.00;70.50;;;;;;4993066;28;20426;-73
2022/02/20 12:00:01;;;;;;;5.13;1.10;;;10.00;70.20;;;;;;4992212;28;20461;-74
2022/02/20 12:02:27;;;;;;;2.00;0.80;;;10.00;70.20;;;;;;4984587;28;20994;-75
2022/02/20 12:04:53;;;;;;;1.73;0.90;;;10.00;70.10;;;;;;4985111;28;20425;-75
2022/02/20 12:07:30;;;;;;;1.87;0.70;;;10.00;70.10;;;;;;4985779;28;20425;-76
2022/02/20 12:10:18;;;;;;;1.90;0.90;;;10.00;70.10;;;;;;4992726;28;20241;-73
2022/02/20 12:12:46;;;;;;;2.00;0.70;;;10.00;70.20;;;;;;4989310;28;20465;-70
2022/02/20 12:15:40;;;;;;;3.30;1.33;;;10.10;70.20;;;;;;4986842;28;20472;-73
2022/02/20 12:18:12;;;;;;;1.03;0.70;;;10.20;69.80;;;;;;4991618;28;20437;-75
2022/02/20 12:20:56;;;;;;;2.03;1.23;;;10.20;69.80;;;;;;4990871;28;20472;-74
2022/02/20 12:23:26;;;;;;;2.03;0.80;;;10.10;69.90;;;;;;4987396;28;20472;-75
2022/02/20 12:25:52;;;;;;;1.37;0.73;;;10.00;70.10;;;;;;4989087;28;20422;-71
2022/02/20 12:28:37;;;;;;;1.50;0.90;;;10.00;70.40;;;;;;4993050;28;20437;-74
2022/02/20 12:31:09;;;;;;;1.23;0.80;;;10.00;70.50;;;;;;4990856;28;20799;-73
2022/02/20 12:33:37;;;;;;;2.60;0.90;;;10.00;70.70;;;;;;4991697;28;20452;-68
2022/02/20 12:36:05;;;;;;;1.97;0.70;;;10.10;70.70;;;;;;4994046;28;20525;-68
2022/02/20 12:38:33;;;;;;;2.10;1.00;;;10.20;70.40;;;;;;4997767;28;20426;-68
2022/02/20 12:40:59;;;;;;;2.43;0.90;;;10.20;70.10;;;;;;4999985;28;20470;-73
2022/02/20 12:43:25;;;;;;;1.90;0.90;;;10.20;70.20;;;;;;4993851;28;20572;-72
2022/02/20 12:45:51;;;;;;;1.60;1.00;;;10.10;70.50;;;;;;4998445;28;20482;-71
2022/02/20 12:48:18;;;;;;;1.30;0.67;;;10.20;70.70;;;;;;4995943;28;20508;-71
2022/02/20 12:50:47;;;;;;;0.80;0.60;;;10.30;70.20;;;;;;4994403;28;20430;-76
2022/02/20 12:53:14;;;;;;;0.93;0.70;;;10.40;70.10;;;;;;4981102;28;20960;-74
2022/02/20 12:55:41;;;;;;;1.30;0.73;;;10.20;70.40;;;;;;4996434;28;20545;-76
2022/02/20 12:58:10;;;;;;;1.27;0.80;;;10.30;70.80;;;;;;4993738;28;20433;-75
2022/02/20 13:00:44;;;;;;;1.00;0.90;;;10.30;70.40;;;;;;4996115;28;20465;-76
2022/02/20 13:03:19;;;;;;;1.00;0.80;;;10.50;70.10;;;;;;4994711;28;20446;-76
2022/02/20 13:05:51;;;;;;;1.00;0.70;;;10.60;69.70;;;;;;4989357;28;20437;-74
2022/02/20 13:08:30;;;;;;;1.30;0.87;;;10.60;69.50;;;;;;4994056;28;20512;-76